TimeCAT,TemperatureF,Dew PointF,Humidity,Sea Level PressureIn,VisibilityMPH,Wind Direction,Wind SpeedMPH,Gust SpeedMPH,PrecipitationIn,Events,Conditions,WindDirDegrees,DateUTC
2:00 AM,75,64,60,,6,NE,3.5,,,,Partly Cloudy,50,2013-03-07 00:00:00
4:00 AM,75.2,60.8,61,29.95,-9999.0,ENE,3.5,-,N/A,,Clear,70,2013-03-07 02:00:00
6:00 AM,71.6,64.4,78,29.98,-9999.0,Variable,1.2,-,N/A,,Clear,0,2013-03-07 04:00:00
7:00 AM,71.6,64.4,78,30.01,-9999.0,Variable,2.3,-,N/A,,Clear,0,2013-03-07 05:00:00
8:00 AM,,66,,,6,North,2.3,,,,Partly Cloudy,0,2013-03-07 06:00:00
9:00 AM,80.6,66.2,61,30.01,-9999.0,North,4.6,-,N/A,,Clear,360,2013-03-07 07:00:00
11:00 AM,91.4,64.4,41,30.01,6.2,NNW,5.8,-,N/A,,Partly Cloudy,340,2013-03-07 09:00:00
12:00 PM,93.2,62.6,36,29.98,6.2,WNW,4.6,-,N/A,,Mostly Cloudy,290,2013-03-07 10:00:00
1:00 PM,95.0,60.8,32,29.95,6.2,NW,12.7,-,N/A,,Mostly Cloudy,320,2013-03-07 11:00:00
2:00 PM,96,60,21,,6,NNW,4.6,,,,Partly Cloudy,340,2013-03-07 12:00:00
2:00 PM,96.8,59.0,28,29.89,6.2,NNW,4.6,-,N/A,,Scattered Clouds,340,2013-03-07 12:00:00
3:00 PM,91.4,62.6,38,29.86,6.2,East,19.6,-,N/A,,Partly Cloudy,100,2013-03-07 13:00:00
4:00 PM,91.4,62.6,38,29.86,6.2,ENE,11.5,-,N/A,,Partly Cloudy,70,2013-03-07 14:00:00
5:00 PM,91.4,64.4,41,29.86,6.2,ENE,13.8,-,N/A,,Partly Cloudy,60,2013-03-07 15:00:00
6:00 PM,89.6,62.6,40,29.89,6.2,NE,13.8,-,N/A,,Partly Cloudy,40,2013-03-07 16:00:00
7:00 PM,84.2,64.4,51,29.89,6.2,NE,9.2,-,N/A,,Partly Cloudy,40,2013-03-07 17:00:00
8:00 PM,80,64,48,,6,ENE,9.2,,,,Partly Cloudy,60,2013-03-07 18:00:00
8:00 PM,80.6,64.4,58,29.92,6.2,ENE,9.2,-,N/A,,Partly Cloudy,60,2013-03-07 18:00:00
9:00 PM,77.0,64.4,65,29.92,6.2,North,10.4,-,N/A,,Partly Cloudy,10,2013-03-07 19:00:00
11:00 PM,75.2,66.2,73,29.95,-9999.0,North,5.8,-,N/A,,Clear,10,2013-03-07 21:00:00